sensor_id;sensor_type;location;lat;lon;timestamp;pressure;altitude;pressure_sealevel;temperature;humidity
17521;BME280;8878;-33.370;-70.552;2023-04-08T00:01:05;91918.09;;;25.05;29.40
17521;BME280;8878;-33.370;-70.552;2023-04-08T00:03:35;91926.13;;;24.82;30.89
17521;BME280;8878;-33.370;-70.552;2023-04-08T00:06:06;91920.63;;;24.75;30.55
17521;BME280;8878;-33.370;-70.552;2023-04-08T00:08:36;91921.56;;;24.64;32.03
17521;BME280;8878;-33.370;-70.552;2023-04-08T00:11:05;91923.06;;;24.61;31.35
17521;BME280;8878;-33.370;-70.552;2023-04-08T00:13:34;91925.25;;;24.55;31.32
17521;BME280;8878;-33.370;-70.552;2023-04-08T00:16:04;91923.56;;;24.47;31.17
17521;BME280;8878;-33.370;-70.552;2023-04-08T00:18:34;91924.56;;;24.39;32.32
17521;BME280;8878;-33.370;-70.552;2023-04-08T00:21:06;91918.47;;;24.23;32.71
17521;BME280;8878;-33.370;-70.552;2023-04-08T00:23:35;91915.25;;;24.17;32.09
17521;BME280;8878;-33.370;-70.552;2023-04-08T00:26:04;91920.81;;;24.25;30.76
17521;BME280;8878;-33.370;-70.552;2023-04-08T00:28:34;91926.00;;;24.33;30.37
17521;BME280;8878;-33.370;-70.552;2023-04-08T00:31:03;91923.69;;;24.16;28.51
17521;BME280;8878;-33.370;-70.552;2023-04-08T00:33:33;91936.72;;;24.30;27.87
17521;BME280;8878;-33.370;-70.552;2023-04-08T00:36:02;91922.88;;;24.50;29.08
17521;BME280;8878;-33.370;-70.552;2023-04-08T00:38:33;91926.41;;;24.35;31.20
17521;BME280;8878;-33.370;-70.552;2023-04-08T00:41:03;91928.97;;;24.28;29.95
17521;BME280;8878;-33.370;-70.552;2023-04-08T00:43:32;91929.25;;;24.23;30.12
17521;BME280;8878;-33.370;-70.552;2023-04-08T00:46:01;91931.53;;;24.21;29.95
17521;BME280;8878;-33.370;-70.552;2023-04-08T00:48:31;91927.84;;;24.29;29.16
17521;BME280;8878;-33.370;-70.552;2023-04-08T00:51:02;91928.50;;;24.23;30.21
17521;BME280;8878;-33.370;-70.552;2023-04-08T00:53:33;91936.09;;;24.01;29.38
17521;BME280;8878;-33.370;-70.552;2023-04-08T00:56:04;91929.94;;;24.01;28.34
17521;BME280;8878;-33.370;-70.552;2023-04-08T00:58:35;91927.81;;;23.75;28.48
17521;BME280;8878;-33.370;-70.552;2023-04-08T01:01:08;91936.38;;;23.96;29.35
17521;BME280;8878;-33.370;-70.552;2023-04-08T01:03:44;91937.50;;;23.95;31.02
17521;BME280;8878;-33.370;-70.552;2023-04-08T01:06:31;91937.91;;;23.78;31.84
17521;BME280;8878;-33.370;-70.552;2023-04-08T01:09:06;91933.06;;;23.68;32.38
17521;BME280;8878;-33.370;-70.552;2023-04-08T01:11:43;91928.56;;;23.56;32.62
17521;BME280;8878;-33.370;-70.552;2023-04-08T01:14:18;91930.38;;;23.52;31.48
17521;BME280;8878;-33.370;-70.552;2023-04-08T01:16:48;91935.78;;;23.52;31.48
17521;BME280;8878;-33.370;-70.552;2023-04-08T01:19:20;91935.50;;;23.41;32.16
17521;BME280;8878;-33.370;-70.552;2023-04-08T01:21:54;91937.41;;;23.41;31.26
17521;BME280;8878;-33.370;-70.552;2023-04-08T01:24:35;91936.63;;;23.40;31.36
17521;BME280;8878;-33.370;-70.552;2023-04-08T01:27:07;91941.69;;;23.26;32.20
17521;BME280;8878;-33.370;-70.552;2023-04-08T01:29:38;91937.88;;;23.12;32.18
17521;BME280;8878;-33.370;-70.552;2023-04-08T01:32:09;91937.34;;;23.06;31.40
17521;BME280;8878;-33.370;-70.552;2023-04-08T01:34:40;91948.34;;;23.17;31.91
17521;BME280;8878;-33.370;-70.552;2023-04-08T01:37:12;91935.88;;;23.09;32.04
17521;BME280;8878;-33.370;-70.552;2023-04-08T01:39:44;91937.19;;;22.99;32.27
17521;BME280;8878;-33.370;-70.552;2023-04-08T01:42:16;91943.84;;;22.89;31.20
17521;BME280;8878;-33.370;-70.552;2023-04-08T01:44:46;91935.09;;;22.92;31.10
17521;BME280;8878;-33.370;-70.552;2023-04-08T01:47:16;91933.00;;;22.86;31.71
17521;BME280;8878;-33.370;-70.552;2023-04-08T01:49:46;91935.41;;;22.75;32.83
17521;BME280;8878;-33.370;-70.552;2023-04-08T01:52:16;91934.00;;;22.65;33.08
17521;BME280;8878;-33.370;-70.552;2023-04-08T01:54:47;91938.47;;;22.61;33.31
17521;BME280;8878;-33.370;-70.552;2023-04-08T01:57:21;91943.47;;;22.47;33.24
17521;BME280;8878;-33.370;-70.552;2023-04-08T01:59:52;91940.34;;;22.45;32.86
17521;BME280;8878;-33.370;-70.552;2023-04-08T02:02:25;91940.34;;;22.45;32.60
17521;BME280;8878;-33.370;-70.552;2023-04-08T02:04:55;91942.50;;;22.40;32.46
17521;BME280;8878;-33.370;-70.552;2023-04-08T02:07:24;91942.44;;;22.36;33.03
17521;BME280;8878;-33.370;-70.552;2023-04-08T02:09:55;91940.41;;;22.33;32.45
17521;BME280;8878;-33.370;-70.552;2023-04-08T02:12:27;91946.22;;;22.35;32.21
17521;BME280;8878;-33.370;-70.552;2023-04-08T02:14:57;91943.81;;;22.30;32.82
17521;BME280;8878;-33.370;-70.552;2023-04-08T02:17:33;91942.38;;;22.20;33.21
17521;BME280;8878;-33.370;-70.552;2023-04-08T02:20:06;91942.47;;;22.24;32.21
17521;BME280;8878;-33.370;-70.552;2023-04-08T02:22:40;91950.09;;;22.22;32.99
17521;BME280;8878;-33.370;-70.552;2023-04-08T02:25:13;91939.69;;;22.20;32.20
17521;BME280;8878;-33.370;-70.552;2023-04-08T02:27:45;91947.50;;;22.25;32.39
17521;BME280;8878;-33.370;-70.552;2023-04-08T02:30:17;91950.75;;;22.19;33.30
17521;BME280;8878;-33.370;-70.552;2023-04-08T02:32:47;91945.31;;;22.15;33.62
17521;BME280;8878;-33.370;-70.552;2023-04-08T02:35:17;91944.75;;;22.10;33.28
17521;BME280;8878;-33.370;-70.552;2023-04-08T02:37:48;91946.31;;;22.11;32.25
17521;BME280;8878;-33.370;-70.552;2023-04-08T02:40:25;91940.72;;;22.16;32.76
17521;BME280;8878;-33.370;-70.552;2023-04-08T02:42:57;91936.66;;;22.22;31.68
17521;BME280;8878;-33.370;-70.552;2023-04-08T02:45:29;91938.91;;;22.20;33.38
17521;BME280;8878;-33.370;-70.552;2023-04-08T02:47:59;91939.47;;;22.13;32.50
17521;BME280;8878;-33.370;-70.552;2023-04-08T02:50:29;91934.19;;;22.17;31.79
17521;BME280;8878;-33.370;-70.552;2023-04-08T02:52:58;91933.44;;;22.16;31.68
17521;BME280;8878;-33.370;-70.552;2023-04-08T02:55:28;91934.19;;;22.17;31.76
17521;BME280;8878;-33.370;-70.552;2023-04-08T02:58:00;91934.31;;;22.20;32.17
17521;BME280;8878;-33.370;-70.552;2023-04-08T03:00:29;91923.69;;;22.12;32.66
17521;BME280;8878;-33.370;-70.552;2023-04-08T03:03:00;91916.47;;;22.00;33.08
17521;BME280;8878;-33.370;-70.552;2023-04-08T03:05:29;91914.75;;;21.96;32.98
17521;BME280;8878;-33.370;-70.552;2023-04-08T03:07:59;91920.84;;;21.93;32.93
17521;BME280;8878;-33.370;-70.552;2023-04-08T03:10:29;91926.22;;;21.93;32.29
17521;BME280;8878;-33.370;-70.552;2023-04-08T03:13:03;91919.72;;;21.94;31.65
17521;BME280;8878;-33.370;-70.552;2023-04-08T03:15:33;91924.09;;;21.98;32.69
17521;BME280;8878;-33.370;-70.552;2023-04-08T03:18:03;91922.00;;;21.67;32.44
17521;BME280;8878;-33.370;-70.552;2023-04-08T03:20:32;91928.94;;;21.68;32.06
17521;BME280;8878;-33.370;-70.552;2023-04-08T03:23:02;91921.25;;;21.67;31.42
17521;BME280;8878;-33.370;-70.552;2023-04-08T03:25:31;91923.00;;;21.75;31.15
17521;BME280;8878;-33.370;-70.552;2023-04-08T03:28:02;91936.31;;;21.71;31.69
17521;BME280;8878;-33.370;-70.552;2023-04-08T03:30:33;91933.88;;;21.66;31.97
17521;BME280;8878;-33.370;-70.552;2023-04-08T03:33:02;91934.53;;;21.63;32.66
17521;BME280;8878;-33.370;-70.552;2023-04-08T03:35:34;91930.78;;;21.52;34.80
17521;BME280;8878;-33.370;-70.552;2023-04-08T03:38:03;91936.56;;;21.54;32.72
17521;BME280;8878;-33.370;-70.552;2023-04-08T03:40:32;91939.25;;;21.54;33.90
17521;BME280;8878;-33.370;-70.552;2023-04-08T03:43:03;91935.34;;;21.52;33.91
17521;BME280;8878;-33.370;-70.552;2023-04-08T03:45:34;91936.72;;;21.45;32.98
17521;BME280;8878;-33.370;-70.552;2023-04-08T03:48:04;91940.59;;;21.48;33.35
17521;BME280;8878;-33.370;-70.552;2023-04-08T03:50:34;91942.19;;;21.37;33.90
17521;BME280;8878;-33.370;-70.552;2023-04-08T03:53:04;91939.28;;;21.42;33.28
17521;BME280;8878;-33.370;-70.552;2023-04-08T03:55:37;91944.41;;;21.35;32.92
17521;BME280;8878;-33.370;-70.552;2023-04-08T03:58:09;91940.06;;;21.30;34.52
17521;BME280;8878;-33.370;-70.552;2023-04-08T04:00:38;91941.28;;;21.33;35.70
17521;BME280;8878;-33.370;-70.552;2023-04-08T04:03:08;91942.41;;;21.20;36.51
17521;BME280;8878;-33.370;-70.552;2023-04-08T04:05:39;91937.25;;;21.15;36.39
17521;BME280;8878;-33.370;-70.552;2023-04-08T04:08:08;91931.41;;;21.00;36.63
17521;BME280;8878;-33.370;-70.552;2023-04-08T04:10:38;91938.44;;;20.93;36.15
17521;BME280;8878;-33.370;-70.552;2023-04-08T04:13:09;91937.81;;;20.96;36.87
17521;BME280;8878;-33.370;-70.552;2023-04-08T04:15:39;91947.06;;;20.86;37.26
17521;BME280;8878;-33.370;-70.552;2023-04-08T04:18:08;91950.50;;;20.75;37.39
17521;BME280;8878;-33.370;-70.552;2023-04-08T04:20:40;91949.19;;;20.81;37.51
17521;BME280;8878;-33.370;-70.552;2023-04-08T04:23:10;91952.28;;;20.83;37.19
17521;BME280;8878;-33.370;-70.552;2023-04-08T04:25:41;91956.22;;;20.85;35.35
17521;BME280;8878;-33.370;-70.552;2023-04-08T04:28:12;91958.09;;;20.85;34.73
17521;BME280;8878;-33.370;-70.552;2023-04-08T04:30:41;91955.31;;;20.81;36.35
17521;BME280;8878;-33.370;-70.552;2023-04-08T04:33:12;91952.19;;;20.79;36.83
17521;BME280;8878;-33.370;-70.552;2023-04-08T04:35:41;91947.59;;;20.80;36.11
17521;BME280;8878;-33.370;-70.552;2023-04-08T04:38:11;91950.63;;;20.90;35.70
17521;BME280;8878;-33.370;-70.552;2023-04-08T04:40:40;91950.19;;;21.00;35.39
17521;BME280;8878;-33.370;-70.552;2023-04-08T04:43:12;91947.06;;;20.98;35.85
17521;BME280;8878;-33.370;-70.552;2023-04-08T04:45:41;91947.28;;;20.93;36.12
17521;BME280;8878;-33.370;-70.552;2023-04-08T04:48:10;91949.97;;;20.93;35.53
17521;BME280;8878;-33.370;-70.552;2023-04-08T04:50:40;91940.34;;;20.92;34.99
17521;BME280;8878;-33.370;-70.552;2023-04-08T04:53:10;91952.28;;;20.83;33.15
17521;BME280;8878;-33.370;-70.552;2023-04-08T04:55:40;91945.78;;;20.71;31.81
17521;BME280;8878;-33.370;-70.552;2023-04-08T04:58:09;91953.53;;;20.85;31.47
17521;BME280;8878;-33.370;-70.552;2023-04-08T05:00:40;91944.38;;;20.86;31.64
17521;BME280;8878;-33.370;-70.552;2023-04-08T05:03:10;91955.78;;;20.95;30.92
17521;BME280;8878;-33.370;-70.552;2023-04-08T05:05:40;91948.81;;;20.82;32.15
17521;BME280;8878;-33.370;-70.552;2023-04-08T05:08:10;91957.88;;;20.90;31.02
17521;BME280;8878;-33.370;-70.552;2023-04-08T05:10:41;91951.97;;;20.96;31.70
17521;BME280;8878;-33.370;-70.552;2023-04-08T05:13:10;91956.44;;;20.92;30.89
17521;BME280;8878;-33.370;-70.552;2023-04-08T05:15:41;91966.94;;;20.97;33.27
17521;BME280;8878;-33.370;-70.552;2023-04-08T05:18:11;91960.94;;;21.00;32.56
17521;BME280;8878;-33.370;-70.552;2023-04-08T05:20:41;91961.03;;;21.04;31.55
17521;BME280;8878;-33.370;-70.552;2023-04-08T05:23:10;91964.16;;;21.06;29.88
17521;BME280;8878;-33.370;-70.552;2023-04-08T05:25:40;91963.38;;;21.05;32.04
17521;BME280;8878;-33.370;-70.552;2023-04-08T05:28:09;91963.59;;;21.13;31.43
17521;BME280;8878;-33.370;-70.552;2023-04-08T05:30:40;91965.63;;;21.16;31.40
17521;BME280;8878;-33.370;-70.552;2023-04-08T05:33:10;91961.72;;;21.13;32.13
17521;BME280;8878;-33.370;-70.552;2023-04-08T05:35:39;91962.69;;;20.96;33.03
17521;BME280;8878;-33.370;-70.552;2023-04-08T05:38:09;91977.75;;;20.77;34.93
17521;BME280;8878;-33.370;-70.552;2023-04-08T05:40:38;91969.34;;;20.66;34.39
17521;BME280;8878;-33.370;-70.552;2023-04-08T05:43:08;91973.00;;;20.61;33.86
17521;BME280;8878;-33.370;-70.552;2023-04-08T05:45:38;91972.78;;;20.54;35.10
17521;BME280;8878;-33.370;-70.552;2023-04-08T05:48:09;91972.88;;;20.46;34.87
17521;BME280;8878;-33.370;-70.552;2023-04-08T05:50:38;91973.56;;;20.55;34.09
17521;BME280;8878;-33.370;-70.552;2023-04-08T05:53:08;91975.19;;;20.47;33.08
17521;BME280;8878;-33.370;-70.552;2023-04-08T05:55:37;91965.47;;;20.43;31.76
17521;BME280;8878;-33.370;-70.552;2023-04-08T05:58:07;91965.59;;;20.46;31.25
17521;BME280;8878;-33.370;-70.552;2023-04-08T06:00:36;91963.66;;;20.35;31.08
17521;BME280;8878;-33.370;-70.552;2023-04-08T06:03:05;91960.22;;;20.46;32.07
17521;BME280;8878;-33.370;-70.552;2023-04-08T06:05:37;91959.38;;;20.54;32.44
17521;BME280;8878;-33.370;-70.552;2023-04-08T06:08:07;91957.03;;;20.53;32.89
17521;BME280;8878;-33.370;-70.552;2023-04-08T06:10:36;91958.50;;;20.62;31.86
17521;BME280;8878;-33.370;-70.552;2023-04-08T06:13:06;91952.50;;;20.65;33.46
17521;BME280;8878;-33.370;-70.552;2023-04-08T06:15:36;91952.81;;;20.64;33.66
17521;BME280;8878;-33.370;-70.552;2023-04-08T06:18:06;91945.00;;;20.59;33.06
17521;BME280;8878;-33.370;-70.552;2023-04-08T06:20:37;91950.53;;;20.54;32.38
17521;BME280;8878;-33.370;-70.552;2023-04-08T06:23:06;91949.53;;;20.25;31.96
17521;BME280;8878;-33.370;-70.552;2023-04-08T06:25:36;91947.19;;;20.45;31.42
17521;BME280;8878;-33.370;-70.552;2023-04-08T06:28:06;91947.22;;;20.57;30.58
17521;BME280;8878;-33.370;-70.552;2023-04-08T06:30:35;91941.09;;;20.68;30.83
17521;BME280;8878;-33.370;-70.552;2023-04-08T06:33:05;91937.28;;;20.69;32.14
17521;BME280;8878;-33.370;-70.552;2023-04-08T06:35:37;91942.31;;;20.59;32.90
17521;BME280;8878;-33.370;-70.552;2023-04-08T06:38:07;91935.25;;;20.54;33.13
17521;BME280;8878;-33.370;-70.552;2023-04-08T06:40:38;91934.47;;;20.54;32.95
17521;BME280;8878;-33.370;-70.552;2023-04-08T06:43:07;91934.59;;;20.57;31.48
17521;BME280;8878;-33.370;-70.552;2023-04-08T06:45:37;91933.19;;;20.72;31.85
17521;BME280;8878;-33.370;-70.552;2023-04-08T06:48:06;91938.88;;;20.70;32.97
17521;BME280;8878;-33.370;-70.552;2023-04-08T06:50:37;91948.75;;;20.46;32.37
17521;BME280;8878;-33.370;-70.552;2023-04-08T06:53:06;91950.31;;;20.47;32.27
17521;BME280;8878;-33.370;-70.552;2023-04-08T06:55:36;91946.75;;;20.55;30.90
17521;BME280;8878;-33.370;-70.552;2023-04-08T06:58:05;91944.88;;;20.67;29.86
17521;BME280;8878;-33.370;-70.552;2023-04-08T07:00:35;91947.91;;;20.66;28.44
17521;BME280;8878;-33.370;-70.552;2023-04-08T07:03:05;91945.25;;;20.90;28.96
17521;BME280;8878;-33.370;-70.552;2023-04-08T07:05:37;91948.38;;;20.80;30.49
17521;BME280;8878;-33.370;-70.552;2023-04-08T07:08:08;91941.44;;;20.67;32.35
17521;BME280;8878;-33.370;-70.552;2023-04-08T07:10:37;91941.44;;;20.67;31.89
17521;BME280;8878;-33.370;-70.552;2023-04-08T07:13:07;91940.75;;;20.58;31.74
17521;BME280;8878;-33.370;-70.552;2023-04-08T07:15:36;91945.00;;;20.59;30.54
17521;BME280;8878;-33.370;-70.552;2023-04-08T07:18:06;91946.22;;;20.61;31.02
17521;BME280;8878;-33.370;-70.552;2023-04-08T07:20:38;91946.66;;;20.51;32.13
17521;BME280;8878;-33.370;-70.552;2023-04-08T07:23:08;91935.31;;;20.33;32.02
17521;BME280;8878;-33.370;-70.552;2023-04-08T07:25:37;91938.31;;;20.11;31.41
17521;BME280;8878;-33.370;-70.552;2023-04-08T07:28:07;91940.84;;;19.96;33.81
17521;BME280;8878;-33.370;-70.552;2023-04-08T07:30:37;91935.75;;;19.82;34.53
17521;BME280;8878;-33.370;-70.552;2023-04-08T07:33:06;91937.81;;;19.76;33.43
17521;BME280;8878;-33.370;-70.552;2023-04-08T07:35:38;91931.03;;;19.79;31.60
17521;BME280;8878;-33.370;-70.552;2023-04-08T07:38:08;91935.47;;;19.96;31.90
17521;BME280;8878;-33.370;-70.552;2023-04-08T07:40:39;91928.56;;;19.94;32.00
17521;BME280;8878;-33.370;-70.552;2023-04-08T07:43:09;91924.41;;;19.97;32.38
17521;BME280;8878;-33.370;-70.552;2023-04-08T07:45:39;91934.03;;;19.98;32.40
17521;BME280;8878;-33.370;-70.552;2023-04-08T07:48:08;91924.56;;;19.80;33.27
17521;BME280;8878;-33.370;-70.552;2023-04-08T07:50:39;91927.25;;;19.80;34.31
17521;BME280;8878;-33.370;-70.552;2023-04-08T07:53:09;91924.91;;;19.58;35.15
17521;BME280;8878;-33.370;-70.552;2023-04-08T07:55:39;91924.75;;;19.54;35.23
17521;BME280;8878;-33.370;-70.552;2023-04-08T07:58:09;91921.63;;;19.52;35.04
17521;BME280;8878;-33.370;-70.552;2023-04-08T08:00:38;91923.31;;;19.57;34.38
17521;BME280;8878;-33.370;-70.552;2023-04-08T08:03:08;91918.69;;;19.66;34.53
17521;BME280;8878;-33.370;-70.552;2023-04-08T08:05:39;91902.22;;;19.76;34.44
17521;BME280;8878;-33.370;-70.552;2023-04-08T08:08:08;91906.16;;;19.78;35.04
17521;BME280;8878;-33.370;-70.552;2023-04-08T08:10:40;91897.09;;;19.71;35.35
17521;BME280;8878;-33.370;-70.552;2023-04-08T08:13:09;91908.31;;;19.64;34.64
17521;BME280;8878;-33.370;-70.552;2023-04-08T08:15:43;91903.03;;;19.55;34.59
17521;BME280;8878;-33.370;-70.552;2023-04-08T08:18:12;91894.88;;;19.52;35.16
17521;BME280;8878;-33.370;-70.552;2023-04-08T08:20:43;91894.88;;;19.52;34.22
17521;BME280;8878;-33.370;-70.552;2023-04-08T08:23:13;91891.22;;;19.57;33.98
17521;BME280;8878;-33.370;-70.552;2023-04-08T08:25:42;91895.31;;;19.54;34.94
17521;BME280;8878;-33.370;-70.552;2023-04-08T08:28:12;91894.84;;;19.31;35.31
17521;BME280;8878;-33.370;-70.552;2023-04-08T08:30:41;91901.84;;;19.15;35.51
17521;BME280;8878;-33.370;-70.552;2023-04-08T08:33:10;91897.25;;;18.95;35.02
17521;BME280;8878;-33.370;-70.552;2023-04-08T08:35:40;91899.53;;;19.05;35.11
17521;BME280;8878;-33.370;-70.552;2023-04-08T08:38:11;91896.22;;;19.08;33.52
17521;BME280;8878;-33.370;-70.552;2023-04-08T08:40:41;91901.84;;;19.15;35.60
17521;BME280;8878;-33.370;-70.552;2023-04-08T08:43:10;91900.31;;;19.05;35.02
17521;BME280;8878;-33.370;-70.552;2023-04-08T08:45:40;91900.31;;;19.05;35.91
17521;BME280;8878;-33.370;-70.552;2023-04-08T08:48:13;91903.38;;;18.95;35.99
17521;BME280;8878;-33.370;-70.552;2023-04-08T08:50:42;91895.72;;;18.85;35.53
17521;BME280;8878;-33.370;-70.552;2023-04-08T08:53:14;91899.31;;;18.89;37.31
17521;BME280;8878;-33.370;-70.552;2023-04-08T08:55:43;91895.97;;;19.01;37.48
17521;BME280;8878;-33.370;-70.552;2023-04-08T08:58:12;91900.84;;;18.99;37.58
17521;BME280;8878;-33.370;-70.552;2023-04-08T09:00:42;91897.75;;;18.88;35.42
17521;BME280;8878;-33.370;-70.552;2023-04-08T09:03:18;91905.81;;;19.09;33.64
17521;BME280;8878;-33.370;-70.552;2023-04-08T09:05:50;91900.75;;;19.16;36.24
17521;BME280;8878;-33.370;-70.552;2023-04-08T09:08:29;91902.22;;;19.05;36.58
17521;BME280;8878;-33.370;-70.552;2023-04-08T09:11:13;91900.00;;;19.07;35.42
17521;BME280;8878;-33.370;-70.552;2023-04-08T09:13:43;91909.59;;;19.08;37.69
17521;BME280;8878;-33.370;-70.552;2023-04-08T09:16:14;91910.22;;;19.05;36.73
17521;BME280;8878;-33.370;-70.552;2023-04-08T09:18:45;91900.66;;;19.04;36.54
17521;BME280;8878;-33.370;-70.552;2023-04-08T09:21:15;91915.78;;;19.00;38.00
17521;BME280;8878;-33.370;-70.552;2023-04-08T09:23:47;91914.19;;;18.99;38.68
17521;BME280;8878;-33.370;-70.552;2023-04-08T09:26:18;91915.22;;;18.86;38.15
17521;BME280;8878;-33.370;-70.552;2023-04-08T09:28:58;91911.00;;;18.76;38.34
17521;BME280;8878;-33.370;-70.552;2023-04-08T09:31:29;91912.91;;;18.75;38.23
17521;BME280;8878;-33.370;-70.552;2023-04-08T09:34:00;91912.91;;;18.75;37.56
17521;BME280;8878;-33.370;-70.552;2023-04-08T09:36:30;91911.00;;;18.76;37.44
17521;BME280;8878;-33.370;-70.552;2023-04-08T09:39:01;91913.66;;;18.76;36.90
17521;BME280;8878;-33.370;-70.552;2023-04-08T09:41:33;91917.13;;;18.76;36.35
17521;BME280;8878;-33.370;-70.552;2023-04-08T09:44:04;91914.94;;;18.78;35.45
17521;BME280;8878;-33.370;-70.552;2023-04-08T09:46:38;91924.81;;;18.87;34.78
17521;BME280;8878;-33.370;-70.552;2023-04-08T09:49:11;91917.97;;;18.98;34.05
17521;BME280;8878;-33.370;-70.552;2023-04-08T09:51:44;91919.69;;;19.02;33.54
17521;BME280;8878;-33.370;-70.552;2023-04-08T09:54:19;91911.38;;;19.04;33.76
17521;BME280;8878;-33.370;-70.552;2023-04-08T09:56:56;91923.16;;;19.03;33.38
17521;BME280;8878;-33.370;-70.552;2023-04-08T09:59:30;91921.91;;;19.00;33.28
17521;BME280;8878;-33.370;-70.552;2023-04-08T10:02:06;91915.94;;;19.03;32.62
17521;BME280;8878;-33.370;-70.552;2023-04-08T10:04:39;91921.41;;;19.07;31.63
17521;BME280;8878;-33.370;-70.552;2023-04-08T10:07:09;91927.06;;;19.05;32.06
17521;BME280;8878;-33.370;-70.552;2023-04-08T10:09:41;91931.97;;;19.03;32.51
17521;BME280;8878;-33.370;-70.552;2023-04-08T10:12:11;91932.13;;;18.98;33.36
17521;BME280;8878;-33.370;-70.552;2023-04-08T10:14:40;91929.16;;;18.91;33.88
17521;BME280;8878;-33.370;-70.552;2023-04-08T10:17:30;91939.06;;;18.91;33.29
17521;BME280;8878;-33.370;-70.552;2023-04-08T10:20:02;91938.44;;;18.94;33.38
17521;BME280;8878;-33.370;-70.552;2023-04-08T10:22:47;91940.25;;;18.81;33.68
17521;BME280;8878;-33.370;-70.552;2023-04-08T10:25:31;91947.06;;;18.61;34.11
17521;BME280;8878;-33.370;-70.552;2023-04-08T10:28:23;91951.00;;;18.47;33.34
17521;BME280;8878;-33.370;-70.552;2023-04-08T10:30:54;91940.59;;;18.62;32.60
17521;BME280;8878;-33.370;-70.552;2023-04-08T10:33:30;91938.19;;;18.78;32.75
17521;BME280;8878;-33.370;-70.552;2023-04-08T10:36:07;91940.06;;;18.77;32.79
17521;BME280;8878;-33.370;-70.552;2023-04-08T10:38:37;91937.13;;;18.70;31.71
17521;BME280;8878;-33.370;-70.552;2023-04-08T10:41:10;91942.47;;;18.62;32.36
17521;BME280;8878;-33.370;-70.552;2023-04-08T10:43:47;91929.63;;;18.47;32.33
17521;BME280;8878;-33.370;-70.552;2023-04-08T10:46:16;91937.47;;;18.52;31.69
17521;BME280;8878;-33.370;-70.552;2023-04-08T10:48:59;91931.03;;;18.61;31.05
17521;BME280;8878;-33.370;-70.552;2023-04-08T10:51:30;91932.84;;;18.78;31.63
17521;BME280;8878;-33.370;-70.552;2023-04-08T10:54:05;91929.88;;;18.80;31.75
17521;BME280;8878;-33.370;-70.552;2023-04-08T10:56:43;91929.88;;;18.71;31.31
17521;BME280;8878;-33.370;-70.552;2023-04-08T10:59:14;91941.47;;;18.84;31.46
17521;BME280;8878;-33.370;-70.552;2023-04-08T11:01:46;91939.28;;;18.77;32.33
17521;BME280;8878;-33.370;-70.552;2023-04-08T11:04:16;91933.06;;;18.64;32.14
17521;BME280;8878;-33.370;-70.552;2023-04-08T11:06:46;91942.81;;;18.52;32.65
17521;BME280;8878;-33.370;-70.552;2023-04-08T11:09:16;91947.06;;;18.44;32.83
17521;BME280;8878;-33.370;-70.552;2023-04-08T11:11:47;91937.69;;;18.21;33.32
17521;BME280;8878;-33.370;-70.552;2023-04-08T11:14:17;91943.63;;;18.35;33.27
17521;BME280;8878;-33.370;-70.552;2023-04-08T11:16:47;91937.03;;;18.41;32.05
17521;BME280;8878;-33.370;-70.552;2023-04-08T11:19:17;91942.66;;;18.65;31.33
17521;BME280;8878;-33.370;-70.552;2023-04-08T11:21:50;91941.53;;;18.66;31.07
17521;BME280;8878;-33.370;-70.552;2023-04-08T11:24:21;91949.91;;;18.56;32.31
17521;BME280;8878;-33.370;-70.552;2023-04-08T11:26:52;91946.75;;;18.54;32.38
17521;BME280;8878;-33.370;-70.552;2023-04-08T11:29:22;91956.19;;;18.60;32.51
17521;BME280;8878;-33.370;-70.552;2023-04-08T11:31:52;91954.28;;;18.52;31.84
17521;BME280;8878;-33.370;-70.552;2023-04-08T11:34:25;91950.69;;;18.57;30.86
17521;BME280;8878;-33.370;-70.552;2023-04-08T11:36:56;91955.66;;;18.75;29.99
17521;BME280;8878;-33.370;-70.552;2023-04-08T11:39:26;91959.53;;;18.87;29.39
17521;BME280;8878;-33.370;-70.552;2023-04-08T11:41:57;91962.31;;;18.99;30.43
17521;BME280;8878;-33.370;-70.552;2023-04-08T11:44:30;91961.78;;;19.14;30.38
17521;BME280;8878;-33.370;-70.552;2023-04-08T11:47:00;91959.09;;;19.14;29.69
17521;BME280;8878;-33.370;-70.552;2023-04-08T11:49:43;91963.00;;;19.25;31.00
17521;BME280;8878;-33.370;-70.552;2023-04-08T11:52:13;91963.88;;;19.38;31.68
17521;BME280;8878;-33.370;-70.552;2023-04-08T11:54:43;91965.56;;;19.42;32.39
17521;BME280;8878;-33.370;-70.552;2023-04-08T11:57:14;91967.91;;;19.44;30.80
17521;BME280;8878;-33.370;-70.552;2023-04-08T11:59:56;91971.22;;;19.49;30.49
17521;BME280;8878;-33.370;-70.552;2023-04-08T12:02:25;91972.97;;;19.75;29.58
17521;BME280;8878;-33.370;-70.552;2023-04-08T12:04:54;91970.97;;;19.84;28.67
17521;BME280;8878;-33.370;-70.552;2023-04-08T12:07:24;91976.84;;;19.98;29.48
17521;BME280;8878;-33.370;-70.552;2023-04-08T12:09:53;91975.56;;;20.04;30.67
17521;BME280;8878;-33.370;-70.552;2023-04-08T12:12:25;91983.97;;;20.15;30.56
17521;BME280;8878;-33.370;-70.552;2023-04-08T12:14:54;91980.00;;;20.21;30.73
17521;BME280;8878;-33.370;-70.552;2023-04-08T12:17:23;91987.16;;;20.29;30.69
17521;BME280;8878;-33.370;-70.552;2023-04-08T12:19:53;91984.88;;;20.40;30.60
17521;BME280;8878;-33.370;-70.552;2023-04-08T12:22:23;91987.94;;;20.50;30.75
17521;BME280;8878;-33.370;-70.552;2023-04-08T12:24:53;91981.50;;;20.63;30.74
17521;BME280;8878;-33.370;-70.552;2023-04-08T12:27:24;91976.31;;;20.79;29.41
17521;BME280;8878;-33.370;-70.552;2023-04-08T12:29:54;91979.69;;;21.00;29.92
17521;BME280;8878;-33.370;-70.552;2023-04-08T12:32:24;91979.25;;;21.10;28.65
17521;BME280;8878;-33.370;-70.552;2023-04-08T12:34:53;91982.06;;;21.14;28.44
17521;BME280;8878;-33.370;-70.552;2023-04-08T12:37:23;91986.47;;;21.31;27.58
17521;BME280;8878;-33.370;-70.552;2023-04-08T12:39:52;91980.31;;;21.42;28.28
17521;BME280;8878;-33.370;-70.552;2023-04-08T12:42:24;91978.53;;;21.59;28.60
17521;BME280;8878;-33.370;-70.552;2023-04-08T12:44:54;91983.41;;;21.69;29.55
17521;BME280;8878;-33.370;-70.552;2023-04-08T12:47:23;91979.94;;;21.80;29.19
17521;BME280;8878;-33.370;-70.552;2023-04-08T12:49:52;91971.53;;;21.94;29.37
17521;BME280;8878;-33.370;-70.552;2023-04-08T12:52:22;91975.66;;;22.04;29.18
17521;BME280;8878;-33.370;-70.552;2023-04-08T12:54:51;91975.41;;;22.21;30.19
17521;BME280;8878;-33.370;-70.552;2023-04-08T12:57:21;91983.47;;;22.21;30.03
17521;BME280;8878;-33.370;-70.552;2023-04-08T12:59:52;91980.84;;;22.24;29.72